sensor_id;sensor_type;location;lat;lon;timestamp;P1;durP1;ratioP1;P2;durP2;ratioP2
19971;SDS011;10147;16.402;102.848;2022-10-17T00:00:58;60.42;;;54.53;;
19971;SDS011;10147;16.402;102.848;2022-10-17T00:03:28;57.05;;;50.20;;
19971;SDS011;10147;16.402;102.848;2022-10-17T00:06:03;76.95;;;69.80;;
19971;SDS011;10147;16.402;102.848;2022-10-17T00:08:40;54.70;;;48.97;;
19971;SDS011;10147;16.402;102.848;2022-10-17T00:11:20;52.15;;;46.63;;
19971;SDS011;10147;16.402;102.848;2022-10-17T00:13:53;50.83;;;45.17;;
19971;SDS011;10147;16.402;102.848;2022-10-17T00:16:27;52.08;;;46.50;;
19971;SDS011;10147;16.402;102.848;2022-10-17T00:19:04;50.63;;;43.15;;
19971;SDS011;10147;16.402;102.848;2022-10-17T00:21:35;51.50;;;43.42;;
19971;SDS011;10147;16.402;102.848;2022-10-17T00:24:06;51.10;;;40.17;;
19971;SDS011;10147;16.402;102.848;2022-10-17T00:26:37;45.80;;;39.03;;
19971;SDS011;10147;16.402;102.848;2022-10-17T00:29:08;44.72;;;37.45;;
19971;SDS011;10147;16.402;102.848;2022-10-17T00:31:38;43.72;;;34.67;;
19971;SDS011;10147;16.402;102.848;2022-10-17T00:34:08;41.38;;;33.50;;
19971;SDS011;10147;16.402;102.848;2022-10-17T00:36:38;56.22;;;44.08;;
19971;SDS011;10147;16.402;102.848;2022-10-17T00:39:08;42.50;;;34.17;;
19971;SDS011;10147;16.402;102.848;2022-10-17T00:41:39;38.78;;;31.45;;
19971;SDS011;10147;16.402;102.848;2022-10-17T00:47:19;41.60;;;30.55;;
19971;SDS011;10147;16.402;102.848;2022-10-17T00:49:52;36.33;;;29.38;;
19971;SDS011;10147;16.402;102.848;2022-10-17T00:52:27;42.10;;;32.97;;
19971;SDS011;10147;16.402;102.848;2022-10-17T00:55:02;36.35;;;29.70;;
19971;SDS011;10147;16.402;102.848;2022-10-17T00:57:40;35.38;;;27.98;;
19971;SDS011;10147;16.402;102.848;2022-10-17T01:00:12;37.63;;;27.55;;
19971;SDS011;10147;16.402;102.848;2022-10-17T01:02:44;34.35;;;26.63;;
19971;SDS011;10147;16.402;102.848;2022-10-17T01:05:16;38.53;;;26.30;;
19971;SDS011;10147;16.402;102.848;2022-10-17T01:07:48;34.00;;;25.48;;
19971;SDS011;10147;16.402;102.848;2022-10-17T01:10:21;37.90;;;26.25;;
19971;SDS011;10147;16.402;102.848;2022-10-17T01:15:58;33.00;;;28.98;;
19971;SDS011;10147;16.402;102.848;2022-10-17T01:18:54;38.33;;;26.27;;
19971;SDS011;10147;16.402;102.848;2022-10-17T01:24:54;36.63;;;23.98;;
19971;SDS011;10147;16.402;102.848;2022-10-17T01:28:11;32.55;;;25.02;;
19971;SDS011;10147;16.402;102.848;2022-10-17T01:30:54;28.52;;;23.65;;
19971;SDS011;10147;16.402;102.848;2022-10-17T01:33:42;28.85;;;23.70;;
19971;SDS011;10147;16.402;102.848;2022-10-17T01:36:25;32.53;;;23.40;;
19971;SDS011;10147;16.402;102.848;2022-10-17T01:39:16;32.58;;;25.35;;
19971;SDS011;10147;16.402;102.848;2022-10-17T01:42:01;31.15;;;24.52;;
19971;SDS011;10147;16.402;102.848;2022-10-17T01:44:48;29.85;;;23.95;;
19971;SDS011;10147;16.402;102.848;2022-10-17T01:47:38;37.05;;;29.02;;
19971;SDS011;10147;16.402;102.848;2022-10-17T01:50:13;32.28;;;23.55;;
19971;SDS011;10147;16.402;102.848;2022-10-17T01:53:01;32.30;;;23.13;;
19971;SDS011;10147;16.402;102.848;2022-10-17T01:55:38;26.88;;;21.45;;
19971;SDS011;10147;16.402;102.848;2022-10-17T01:58:13;27.23;;;22.08;;
19971;SDS011;10147;16.402;102.848;2022-10-17T02:00:50;26.33;;;21.90;;
19971;SDS011;10147;16.402;102.848;2022-10-17T02:03:22;30.70;;;21.50;;
19971;SDS011;10147;16.402;102.848;2022-10-17T02:05:55;28.63;;;21.38;;
19971;SDS011;10147;16.402;102.848;2022-10-17T02:11:23;35.17;;;23.52;;
19971;SDS011;10147;16.402;102.848;2022-10-17T02:14:09;31.15;;;20.88;;
19971;SDS011;10147;16.402;102.848;2022-10-17T02:20:09;26.25;;;19.63;;
19971;SDS011;10147;16.402;102.848;2022-10-17T02:23:06;26.70;;;19.40;;
19971;SDS011;10147;16.402;102.848;2022-10-17T02:25:56;30.80;;;18.25;;
19971;SDS011;10147;16.402;102.848;2022-10-17T02:28:58;23.75;;;18.98;;
19971;SDS011;10147;16.402;102.848;2022-10-17T02:31:39;26.17;;;19.20;;
19971;SDS011;10147;16.402;102.848;2022-10-17T02:34:49;24.60;;;19.35;;
19971;SDS011;10147;16.402;102.848;2022-10-17T02:37:24;25.65;;;18.75;;
19971;SDS011;10147;16.402;102.848;2022-10-17T02:39:58;24.70;;;18.95;;
19971;SDS011;10147;16.402;102.848;2022-10-17T02:42:30;26.52;;;19.75;;
19971;SDS011;10147;16.402;102.848;2022-10-17T02:45:02;23.77;;;18.90;;
19971;SDS011;10147;16.402;102.848;2022-10-17T02:47:36;24.23;;;19.75;;
19971;SDS011;10147;16.402;102.848;2022-10-17T02:50:47;25.83;;;18.90;;
19971;SDS011;10147;16.402;102.848;2022-10-17T02:53:31;26.05;;;19.58;;
19971;SDS011;10147;16.402;102.848;2022-10-17T02:56:11;34.05;;;19.77;;
19971;SDS011;10147;16.402;102.848;2022-10-17T02:58:49;28.08;;;19.48;;
19971;SDS011;10147;16.402;102.848;2022-10-17T03:01:23;41.13;;;37.08;;
19971;SDS011;10147;16.402;102.848;2022-10-17T03:06:45;26.92;;;19.67;;
19971;SDS011;10147;16.402;102.848;2022-10-17T03:09:17;28.65;;;19.08;;
19971;SDS011;10147;16.402;102.848;2022-10-17T03:11:49;25.25;;;18.92;;
19971;SDS011;10147;16.402;102.848;2022-10-17T03:14:19;26.48;;;20.10;;
19971;SDS011;10147;16.402;102.848;2022-10-17T03:16:50;24.38;;;19.05;;
19971;SDS011;10147;16.402;102.848;2022-10-17T03:19:21;23.60;;;21.00;;
19971;SDS011;10147;16.402;102.848;2022-10-17T03:21:52;24.00;;;21.20;;
19971;SDS011;10147;16.402;102.848;2022-10-17T03:24:23;22.67;;;17.20;;
19971;SDS011;10147;16.402;102.848;2022-10-17T03:26:53;22.92;;;19.30;;
19971;SDS011;10147;16.402;102.848;2022-10-17T03:29:24;21.33;;;17.77;;
19971;SDS011;10147;16.402;102.848;2022-10-17T03:31:54;26.50;;;20.40;;
19971;SDS011;10147;16.402;102.848;2022-10-17T03:34:25;26.90;;;19.48;;
19971;SDS011;10147;16.402;102.848;2022-10-17T03:36:57;24.58;;;18.08;;
19971;SDS011;10147;16.402;102.848;2022-10-17T03:39:29;23.30;;;19.88;;
19971;SDS011;10147;16.402;102.848;2022-10-17T03:42:00;28.23;;;19.95;;
19971;SDS011;10147;16.402;102.848;2022-10-17T03:44:31;30.92;;;19.45;;
19971;SDS011;10147;16.402;102.848;2022-10-17T03:47:01;25.45;;;19.15;;
19971;SDS011;10147;16.402;102.848;2022-10-17T03:49:33;21.15;;;18.23;;
19971;SDS011;10147;16.402;102.848;2022-10-17T03:52:04;24.60;;;19.17;;
19971;SDS011;10147;16.402;102.848;2022-10-17T03:54:34;23.75;;;19.20;;
19971;SDS011;10147;16.402;102.848;2022-10-17T03:57:05;23.40;;;18.63;;
19971;SDS011;10147;16.402;102.848;2022-10-17T03:59:37;24.00;;;19.42;;
19971;SDS011;10147;16.402;102.848;2022-10-17T04:02:13;27.75;;;20.02;;
19971;SDS011;10147;16.402;102.848;2022-10-17T04:04:43;25.98;;;19.25;;
19971;SDS011;10147;16.402;102.848;2022-10-17T04:07:15;26.42;;;18.42;;
19971;SDS011;10147;16.402;102.848;2022-10-17T04:09:47;30.42;;;19.10;;
19971;SDS011;10147;16.402;102.848;2022-10-17T04:12:20;25.17;;;19.25;;
19971;SDS011;10147;16.402;102.848;2022-10-17T04:14:51;27.10;;;19.42;;
19971;SDS011;10147;16.402;102.848;2022-10-17T04:17:22;24.60;;;19.17;;
19971;SDS011;10147;16.402;102.848;2022-10-17T04:19:53;23.38;;;18.67;;
19971;SDS011;10147;16.402;102.848;2022-10-17T04:22:24;22.08;;;19.25;;
19971;SDS011;10147;16.402;102.848;2022-10-17T04:24:55;23.50;;;20.23;;
19971;SDS011;10147;16.402;102.848;2022-10-17T04:27:34;23.95;;;19.02;;
19971;SDS011;10147;16.402;102.848;2022-10-17T04:30:06;26.10;;;20.73;;
19971;SDS011;10147;16.402;102.848;2022-10-17T04:32:37;24.23;;;19.38;;
19971;SDS011;10147;16.402;102.848;2022-10-17T04:35:13;23.83;;;19.42;;
19971;SDS011;10147;16.402;102.848;2022-10-17T04:37:48;23.83;;;19.63;;
19971;SDS011;10147;16.402;102.848;2022-10-17T04:40:20;24.00;;;18.98;;
19971;SDS011;10147;16.402;102.848;2022-10-17T04:42:51;23.40;;;19.95;;
19971;SDS011;10147;16.402;102.848;2022-10-17T04:45:29;24.55;;;19.40;;
19971;SDS011;10147;16.402;102.848;2022-10-17T04:48:02;25.75;;;19.80;;
19971;SDS011;10147;16.402;102.848;2022-10-17T04:50:33;28.83;;;19.75;;
19971;SDS011;10147;16.402;102.848;2022-10-17T04:53:23;24.30;;;20.10;;
19971;SDS011;10147;16.402;102.848;2022-10-17T04:55:54;21.60;;;19.30;;
19971;SDS011;10147;16.402;102.848;2022-10-17T04:58:27;24.77;;;19.65;;
19971;SDS011;10147;16.402;102.848;2022-10-17T05:00:58;23.30;;;20.15;;
19971;SDS011;10147;16.402;102.848;2022-10-17T05:03:36;28.33;;;21.10;;
19971;SDS011;10147;16.402;102.848;2022-10-17T05:06:15;26.75;;;21.85;;
19971;SDS011;10147;16.402;102.848;2022-10-17T05:09:05;27.20;;;20.17;;
19971;SDS011;10147;16.402;102.848;2022-10-17T05:11:36;23.80;;;20.27;;
19971;SDS011;10147;16.402;102.848;2022-10-17T05:14:06;26.70;;;21.20;;
19971;SDS011;10147;16.402;102.848;2022-10-17T05:16:37;24.67;;;20.08;;
19971;SDS011;10147;16.402;102.848;2022-10-17T05:19:08;27.88;;;20.15;;
19971;SDS011;10147;16.402;102.848;2022-10-17T05:21:44;23.58;;;20.70;;
19971;SDS011;10147;16.402;102.848;2022-10-17T05:24:14;27.45;;;22.35;;
19971;SDS011;10147;16.402;102.848;2022-10-17T05:26:48;22.63;;;20.23;;
19971;SDS011;10147;16.402;102.848;2022-10-17T05:29:19;26.88;;;20.15;;
19971;SDS011;10147;16.402;102.848;2022-10-17T05:32:00;27.20;;;21.10;;
19971;SDS011;10147;16.402;102.848;2022-10-17T05:34:30;25.75;;;21.08;;
19971;SDS011;10147;16.402;102.848;2022-10-17T05:37:02;24.20;;;19.67;;
19971;SDS011;10147;16.402;102.848;2022-10-17T05:39:33;22.70;;;20.27;;
19971;SDS011;10147;16.402;102.848;2022-10-17T05:42:04;25.50;;;20.33;;
19971;SDS011;10147;16.402;102.848;2022-10-17T05:44:37;24.38;;;20.10;;
19971;SDS011;10147;16.402;102.848;2022-10-17T05:47:09;24.17;;;18.92;;
19971;SDS011;10147;16.402;102.848;2022-10-17T05:49:40;25.00;;;20.02;;
19971;SDS011;10147;16.402;102.848;2022-10-17T05:52:25;21.38;;;19.05;;
19971;SDS011;10147;16.402;102.848;2022-10-17T05:55:09;22.85;;;20.23;;
19971;SDS011;10147;16.402;102.848;2022-10-17T05:57:39;24.55;;;18.75;;
19971;SDS011;10147;16.402;102.848;2022-10-17T06:00:15;23.50;;;20.98;;
19971;SDS011;10147;16.402;102.848;2022-10-17T06:02:53;27.60;;;19.20;;
19971;SDS011;10147;16.402;102.848;2022-10-17T06:05:24;23.17;;;19.33;;
19971;SDS011;10147;16.402;102.848;2022-10-17T06:07:55;27.10;;;21.33;;
19971;SDS011;10147;16.402;102.848;2022-10-17T06:10:32;22.05;;;19.52;;
19971;SDS011;10147;16.402;102.848;2022-10-17T06:13:03;26.65;;;20.17;;
19971;SDS011;10147;16.402;102.848;2022-10-17T06:15:34;22.92;;;20.33;;
19971;SDS011;10147;16.402;102.848;2022-10-17T06:18:07;22.15;;;19.58;;
19971;SDS011;10147;16.402;102.848;2022-10-17T06:20:38;22.73;;;20.05;;
19971;SDS011;10147;16.402;102.848;2022-10-17T06:23:15;25.83;;;21.13;;
19971;SDS011;10147;16.402;102.848;2022-10-17T06:26:03;24.77;;;18.98;;
19971;SDS011;10147;16.402;102.848;2022-10-17T06:28:34;25.33;;;20.83;;
19971;SDS011;10147;16.402;102.848;2022-10-17T06:31:08;24.75;;;22.08;;
19971;SDS011;10147;16.402;102.848;2022-10-17T06:33:41;28.00;;;22.52;;
19971;SDS011;10147;16.402;102.848;2022-10-17T06:36:12;22.92;;;20.52;;
19971;SDS011;10147;16.402;102.848;2022-10-17T06:38:45;23.05;;;19.58;;
19971;SDS011;10147;16.402;102.848;2022-10-17T06:41:21;21.73;;;19.42;;
19971;SDS011;10147;16.402;102.848;2022-10-17T06:43:53;23.48;;;19.67;;
19971;SDS011;10147;16.402;102.848;2022-10-17T06:46:36;27.67;;;20.20;;
19971;SDS011;10147;16.402;102.848;2022-10-17T06:49:09;24.85;;;20.70;;
19971;SDS011;10147;16.402;102.848;2022-10-17T06:51:59;26.33;;;20.40;;
19971;SDS011;10147;16.402;102.848;2022-10-17T06:54:49;23.23;;;20.17;;
19971;SDS011;10147;16.402;102.848;2022-10-17T06:57:40;24.27;;;21.00;;
19971;SDS011;10147;16.402;102.848;2022-10-17T07:00:30;23.75;;;20.80;;
19971;SDS011;10147;16.402;102.848;2022-10-17T07:03:01;30.20;;;20.67;;
19971;SDS011;10147;16.402;102.848;2022-10-17T07:05:31;26.08;;;20.30;;
19971;SDS011;10147;16.402;102.848;2022-10-17T07:08:05;22.17;;;19.58;;
19971;SDS011;10147;16.402;102.848;2022-10-17T07:10:37;23.38;;;20.92;;
19971;SDS011;10147;16.402;102.848;2022-10-17T07:13:11;25.48;;;21.05;;
19971;SDS011;10147;16.402;102.848;2022-10-17T07:15:44;23.17;;;20.23;;
19971;SDS011;10147;16.402;102.848;2022-10-17T07:18:16;24.50;;;21.27;;
19971;SDS011;10147;16.402;102.848;2022-10-17T07:20:53;24.75;;;19.90;;
19971;SDS011;10147;16.402;102.848;2022-10-17T07:23:24;25.88;;;20.52;;
19971;SDS011;10147;16.402;102.848;2022-10-17T07:25:59;23.30;;;20.48;;
19971;SDS011;10147;16.402;102.848;2022-10-17T07:28:32;23.63;;;19.83;;
19971;SDS011;10147;16.402;102.848;2022-10-17T07:31:15;22.08;;;19.33;;
19971;SDS011;10147;16.402;102.848;2022-10-17T07:33:50;23.02;;;20.40;;
19971;SDS011;10147;16.402;102.848;2022-10-17T07:36:22;24.23;;;19.55;;
19971;SDS011;10147;16.402;102.848;2022-10-17T07:38:55;23.10;;;19.90;;
19971;SDS011;10147;16.402;102.848;2022-10-17T07:41:36;23.25;;;20.25;;
19971;SDS011;10147;16.402;102.848;2022-10-17T07:44:07;24.05;;;20.48;;
19971;SDS011;10147;16.402;102.848;2022-10-17T07:46:43;26.75;;;23.05;;
19971;SDS011;10147;16.402;102.848;2022-10-17T07:49:15;26.75;;;20.20;;
19971;SDS011;10147;16.402;102.848;2022-10-17T07:51:47;24.58;;;20.70;;
19971;SDS011;10147;16.402;102.848;2022-10-17T07:54:18;22.08;;;19.55;;
19971;SDS011;10147;16.402;102.848;2022-10-17T07:56:52;24.02;;;20.58;;
19971;SDS011;10147;16.402;102.848;2022-10-17T07:59:22;25.08;;;21.42;;
19971;SDS011;10147;16.402;102.848;2022-10-17T08:01:56;32.92;;;28.20;;
19971;SDS011;10147;16.402;102.848;2022-10-17T08:04:28;26.42;;;20.02;;
19971;SDS011;10147;16.402;102.848;2022-10-17T08:07:02;28.02;;;21.25;;
19971;SDS011;10147;16.402;102.848;2022-10-17T08:09:51;24.67;;;19.50;;
19971;SDS011;10147;16.402;102.848;2022-10-17T08:12:27;25.88;;;19.95;;
19971;SDS011;10147;16.402;102.848;2022-10-17T08:15:02;29.45;;;21.17;;
19971;SDS011;10147;16.402;102.848;2022-10-17T08:17:35;22.30;;;19.90;;
19971;SDS011;10147;16.402;102.848;2022-10-17T08:20:08;24.67;;;20.95;;
19971;SDS011;10147;16.402;102.848;2022-10-17T08:22:41;23.27;;;20.55;;
19971;SDS011;10147;16.402;102.848;2022-10-17T08:25:11;24.65;;;21.77;;
19971;SDS011;10147;16.402;102.848;2022-10-17T08:27:43;24.27;;;20.13;;
19971;SDS011;10147;16.402;102.848;2022-10-17T08:30:13;22.73;;;19.67;;
19971;SDS011;10147;16.402;102.848;2022-10-17T08:32:47;23.10;;;20.52;;
19971;SDS011;10147;16.402;102.848;2022-10-17T08:35:18;25.23;;;20.30;;
19971;SDS011;10147;16.402;102.848;2022-10-17T08:37:51;25.70;;;20.50;;
19971;SDS011;10147;16.402;102.848;2022-10-17T08:40:23;24.77;;;21.20;;
19971;SDS011;10147;16.402;102.848;2022-10-17T08:46:09;26.67;;;21.30;;
19971;SDS011;10147;16.402;102.848;2022-10-17T08:48:44;23.40;;;20.27;;
19971;SDS011;10147;16.402;102.848;2022-10-17T08:51:22;25.48;;;20.65;;
19971;SDS011;10147;16.402;102.848;2022-10-17T08:53:57;28.42;;;20.83;;
19971;SDS011;10147;16.402;102.848;2022-10-17T08:56:43;25.52;;;19.73;;
19971;SDS011;10147;16.402;102.848;2022-10-17T08:59:22;23.45;;;20.65;;
19971;SDS011;10147;16.402;102.848;2022-10-17T09:02:09;24.77;;;21.05;;
19971;SDS011;10147;16.402;102.848;2022-10-17T09:05:09;29.33;;;21.30;;
19971;SDS011;10147;16.402;102.848;2022-10-17T09:11:06;22.60;;;20.13;;
19971;SDS011;10147;16.402;102.848;2022-10-17T09:20:16;28.60;;;22.40;;
19971;SDS011;10147;16.402;102.848;2022-10-17T09:23:14;43.17;;;22.67;;
19971;SDS011;10147;16.402;102.848;2022-10-17T09:25:57;27.15;;;20.88;;
19971;SDS011;10147;16.402;102.848;2022-10-17T09:28:32;33.17;;;22.73;;
19971;SDS011;10147;16.402;102.848;2022-10-17T09:31:06;30.63;;;21.65;;
19971;SDS011;10147;16.402;102.848;2022-10-17T09:34:01;28.20;;;21.58;;
19971;SDS011;10147;16.402;102.848;2022-10-17T09:36:33;27.63;;;22.20;;
19971;SDS011;10147;16.402;102.848;2022-10-17T09:39:12;25.50;;;21.17;;
19971;SDS011;10147;16.402;102.848;2022-10-17T09:41:49;23.73;;;21.20;;
19971;SDS011;10147;16.402;102.848;2022-10-17T09:44:32;24.38;;;21.67;;
19971;SDS011;10147;16.402;102.848;2022-10-17T09:50:08;29.02;;;22.30;;
19971;SDS011;10147;16.402;102.848;2022-10-17T09:53:07;25.30;;;20.60;;
19971;SDS011;10147;16.402;102.848;2022-10-17T09:55:46;25.95;;;21.58;;
19971;SDS011;10147;16.402;102.848;2022-10-17T09:58:19;26.52;;;23.08;;
19971;SDS011;10147;16.402;102.848;2022-10-17T10:00:50;26.73;;;22.67;;
19971;SDS011;10147;16.402;102.848;2022-10-17T10:03:21;28.80;;;22.50;;
19971;SDS011;10147;16.402;102.848;2022-10-17T10:06:13;34.53;;;28.83;;
19971;SDS011;10147;16.402;102.848;2022-10-17T10:08:55;30.55;;;23.95;;
19971;SDS011;10147;16.402;102.848;2022-10-17T10:14:28;32.38;;;23.17;;
19971;SDS011;10147;16.402;102.848;2022-10-17T10:17:02;30.63;;;22.98;;
19971;SDS011;10147;16.402;102.848;2022-10-17T10:19:36;31.45;;;22.88;;
19971;SDS011;10147;16.402;102.848;2022-10-17T10:22:13;30.48;;;23.88;;
19971;SDS011;10147;16.402;102.848;2022-10-17T10:24:45;30.58;;;24.58;;
19971;SDS011;10147;16.402;102.848;2022-10-17T10:27:38;30.85;;;26.85;;
19971;SDS011;10147;16.402;102.848;2022-10-17T10:30:16;30.85;;;23.55;;
19971;SDS011;10147;16.402;102.848;2022-10-17T10:32:48;48.58;;;34.15;;
19971;SDS011;10147;16.402;102.848;2022-10-17T10:35:20;45.80;;;34.45;;
19971;SDS011;10147;16.402;102.848;2022-10-17T10:38:08;46.85;;;33.80;;
19971;SDS011;10147;16.402;102.848;2022-10-17T10:40:44;56.17;;;45.67;;
19971;SDS011;10147;16.402;102.848;2022-10-17T10:46:18;43.25;;;30.35;;
19971;SDS011;10147;16.402;102.848;2022-10-17T10:49:01;44.80;;;31.92;;
19971;SDS011;10147;16.402;102.848;2022-10-17T10:51:39;63.05;;;37.55;;
19971;SDS011;10147;16.402;102.848;2022-10-17T10:57:11;61.58;;;41.15;;
19971;SDS011;10147;16.402;102.848;2022-10-17T10:59:52;89.57;;;52.53;;
19971;SDS011;10147;16.402;102.848;2022-10-17T11:05:49;87.70;;;60.45;;
19971;SDS011;10147;16.402;102.848;2022-10-17T11:08:37;69.97;;;51.08;;
19971;SDS011;10147;16.402;102.848;2022-10-17T11:11:31;63.55;;;44.72;;
19971;SDS011;10147;16.402;102.848;2022-10-17T11:17:51;66.07;;;43.75;;
19971;SDS011;10147;16.402;102.848;2022-10-17T11:20:33;88.45;;;53.55;;
19971;SDS011;10147;16.402;102.848;2022-10-17T11:26:20;70.13;;;44.17;;
19971;SDS011;10147;16.402;102.848;2022-10-17T11:28:57;72.78;;;51.03;;
19971;SDS011;10147;16.402;102.848;2022-10-17T11:31:30;87.25;;;57.30;;
19971;SDS011;10147;16.402;102.848;2022-10-17T11:34:22;89.35;;;51.22;;
19971;SDS011;10147;16.402;102.848;2022-10-17T11:36:57;84.72;;;51.17;;
19971;SDS011;10147;16.402;102.848;2022-10-17T11:39:50;82.22;;;50.50;;
19971;SDS011;10147;16.402;102.848;2022-10-17T11:42:44;88.38;;;53.75;;
19971;SDS011;10147;16.402;102.848;2022-10-17T11:45:23;82.72;;;54.92;;
19971;SDS011;10147;16.402;102.848;2022-10-17T11:48:03;80.18;;;51.70;;
19971;SDS011;10147;16.402;102.848;2022-10-17T11:50:36;91.78;;;55.08;;
19971;SDS011;10147;16.402;102.848;2022-10-17T11:53:33;84.70;;;54.97;;
19971;SDS011;10147;16.402;102.848;2022-10-17T11:56:27;117.65;;;84.40;;
19971;SDS011;10147;16.402;102.848;2022-10-17T11:59:33;118.63;;;80.63;;
19971;SDS011;10147;16.402;102.848;2022-10-17T12:05:38;222.70;;;132.38;;
19971;SDS011;10147;16.402;102.848;2022-10-17T12:08:40;269.83;;;151.57;;
19971;SDS011;10147;16.402;102.848;2022-10-17T12:11:48;327.83;;;184.98;;
19971;SDS011;10147;16.402;102.848;2022-10-17T12:23:03;291.75;;;159.82;;
19971;SDS011;10147;16.402;102.848;2022-10-17T12:25:57;231.90;;;135.85;;
19971;SDS011;10147;16.402;102.848;2022-10-17T12:28:41;165.77;;;99.70;;
19971;SDS011;10147;16.402;102.848;2022-10-17T12:31:21;118.45;;;76.20;;
19971;SDS011;10147;16.402;102.848;2022-10-17T12:34:01;85.72;;;58.97;;
19971;SDS011;10147;16.402;102.848;2022-10-17T12:36:36;73.38;;;51.88;;
19971;SDS011;10147;16.402;102.848;2022-10-17T12:51:29;69.45;;;50.85;;
19971;SDS011;10147;16.402;102.848;2022-10-17T12:57:45;61.65;;;44.47;;
19971;SDS011;10147;16.402;102.848;2022-10-17T13:00:36;56.85;;;43.92;;
19971;SDS011;10147;16.402;102.848;2022-10-17T13:03:41;59.35;;;45.00;;
19971;SDS011;10147;16.402;102.848;2022-10-17T13:06:24;56.88;;;44.85;;
19971;SDS011;10147;16.402;102.848;2022-10-17T13:08:58;58.92;;;45.17;;
19971;SDS011;10147;16.402;102.848;2022-10-17T13:11:33;66.30;;;46.30;;
19971;SDS011;10147;16.402;102.848;2022-10-17T13:14:10;69.60;;;45.88;;
19971;SDS011;10147;16.402;102.848;2022-10-17T13:16:52;60.17;;;44.85;;
19971;SDS011;10147;16.402;102.848;2022-10-17T13:19:28;386.75;;;308.73;;
19971;SDS011;10147;16.402;102.848;2022-10-17T13:22:01;97.43;;;74.30;;
19971;SDS011;10147;16.402;102.848;2022-10-17T13:24:38;78.20;;;59.63;;
19971;SDS011;10147;16.402;102.848;2022-10-17T13:30:01;67.43;;;48.38;;
19971;SDS011;10147;16.402;102.848;2022-10-17T13:32:52;62.85;;;46.30;;
19971;SDS011;10147;16.402;102.848;2022-10-17T13:35:26;64.35;;;47.70;;
19971;SDS011;10147;16.402;102.848;2022-10-17T13:38:26;60.03;;;47.40;;
19971;SDS011;10147;16.402;102.848;2022-10-17T13:41:08;64.85;;;46.50;;
19971;SDS011;10147;16.402;102.848;2022-10-17T13:44:02;64.07;;;47.72;;
19971;SDS011;10147;16.402;102.848;2022-10-17T13:46:39;63.30;;;48.65;;
19971;SDS011;10147;16.402;102.848;2022-10-17T13:52:13;72.65;;;50.75;;
19971;SDS011;10147;16.402;102.848;2022-10-17T13:54:50;66.93;;;53.50;;
19971;SDS011;10147;16.402;102.848;2022-10-17T13:57:26;74.55;;;51.50;;
19971;SDS011;10147;16.402;102.848;2022-10-17T14:00:04;188.48;;;147.75;;
19971;SDS011;10147;16.402;102.848;2022-10-17T14:02:39;288.08;;;179.65;;
19971;SDS011;10147;16.402;102.848;2022-10-17T14:05:12;78.50;;;56.92;;
19971;SDS011;10147;16.402;102.848;2022-10-17T14:07:53;69.88;;;52.35;;
19971;SDS011;10147;16.402;102.848;2022-10-17T14:10:40;72.95;;;52.72;;
19971;SDS011;10147;16.402;102.848;2022-10-17T14:13:25;71.80;;;50.70;;
19971;SDS011;10147;16.402;102.848;2022-10-17T14:15:59;70.53;;;52.13;;
19971;SDS011;10147;16.402;102.848;2022-10-17T14:18:33;71.40;;;52.70;;
19971;SDS011;10147;16.402;102.848;2022-10-17T14:21:06;73.07;;;54.08;;
19971;SDS011;10147;16.402;102.848;2022-10-17T14:26:56;69.63;;;53.45;;
19971;SDS011;10147;16.402;102.848;2022-10-17T14:29:29;72.68;;;53.53;;
19971;SDS011;10147;16.402;102.848;2022-10-17T14:32:18;76.10;;;52.85;;
19971;SDS011;10147;16.402;102.848;2022-10-17T14:34:53;74.40;;;54.70;;
19971;SDS011;10147;16.402;102.848;2022-10-17T14:37:45;72.20;;;56.65;;
19971;SDS011;10147;16.402;102.848;2022-10-17T14:40:19;74.97;;;54.28;;
19971;SDS011;10147;16.402;102.848;2022-10-17T14:42:55;75.72;;;55.10;;
19971;SDS011;10147;16.402;102.848;2022-10-17T14:45:29;78.10;;;55.55;;
19971;SDS011;10147;16.402;102.848;2022-10-17T14:48:10;74.82;;;53.05;;
19971;SDS011;10147;16.402;102.848;2022-10-17T14:53:58;77.95;;;56.55;;
19971;SDS011;10147;16.402;102.848;2022-10-17T14:56:48;258.88;;;189.05;;
19971;SDS011;10147;16.402;102.848;2022-10-17T14:59:21;125.70;;;95.97;;
19971;SDS011;10147;16.402;102.848;2022-10-17T15:02:14;86.50;;;64.60;;
19971;SDS011;10147;16.402;102.848;2022-10-17T15:04:44;86.60;;;66.03;;
19971;SDS011;10147;16.402;102.848;2022-10-17T15:07:15;90.78;;;68.47;;
19971;SDS011;10147;16.402;102.848;2022-10-17T15:09:47;100.85;;;76.47;;
19971;SDS011;10147;16.402;102.848;2022-10-17T15:12:21;103.20;;;79.03;;
19971;SDS011;10147;16.402;102.848;2022-10-17T15:14:53;99.88;;;78.90;;
19971;SDS011;10147;16.402;102.848;2022-10-17T15:17:25;108.38;;;84.65;;
19971;SDS011;10147;16.402;102.848;2022-10-17T15:19:57;109.63;;;80.07;;
19971;SDS011;10147;16.402;102.848;2022-10-17T15:22:29;109.55;;;82.60;;
19971;SDS011;10147;16.402;102.848;2022-10-17T15:25:00;110.78;;;83.43;;
19971;SDS011;10147;16.402;102.848;2022-10-17T15:27:30;110.95;;;87.70;;
19971;SDS011;10147;16.402;102.848;2022-10-17T15:30:00;115.05;;;88.20;;
19971;SDS011;10147;16.402;102.848;2022-10-17T15:32:31;107.47;;;84.50;;
19971;SDS011;10147;16.402;102.848;2022-10-17T15:35:01;110.15;;;87.40;;
19971;SDS011;10147;16.402;102.848;2022-10-17T15:37:32;110.65;;;87.63;;
19971;SDS011;10147;16.402;102.848;2022-10-17T15:40:03;115.03;;;90.20;;
19971;SDS011;10147;16.402;102.848;2022-10-17T15:42:34;108.85;;;88.15;;
19971;SDS011;10147;16.402;102.848;2022-10-17T15:45:05;105.57;;;83.63;;
19971;SDS011;10147;16.402;102.848;2022-10-17T15:47:36;98.15;;;73.57;;
19971;SDS011;10147;16.402;102.848;2022-10-17T15:50:14;96.18;;;74.28;;
19971;SDS011;10147;16.402;102.848;2022-10-17T15:52:45;88.10;;;71.45;;
19971;SDS011;10147;16.402;102.848;2022-10-17T15:55:18;103.63;;;77.15;;
19971;SDS011;10147;16.402;102.848;2022-10-17T15:57:48;104.10;;;75.35;;
19971;SDS011;10147;16.402;102.848;2022-10-17T16:00:20;101.53;;;76.93;;
19971;SDS011;10147;16.402;102.848;2022-10-17T16:02:53;87.93;;;70.53;;
19971;SDS011;10147;16.402;102.848;2022-10-17T16:05:24;89.25;;;70.38;;
19971;SDS011;10147;16.402;102.848;2022-10-17T16:07:56;91.03;;;66.40;;
19971;SDS011;10147;16.402;102.848;2022-10-17T16:10:27;81.78;;;61.00;;
19971;SDS011;10147;16.402;102.848;2022-10-17T16:12:58;83.55;;;64.93;;
19971;SDS011;10147;16.402;102.848;2022-10-17T16:15:28;91.55;;;70.68;;
19971;SDS011;10147;16.402;102.848;2022-10-17T16:17:59;89.32;;;69.95;;
19971;SDS011;10147;16.402;102.848;2022-10-17T16:20:34;85.03;;;66.47;;
19971;SDS011;10147;16.402;102.848;2022-10-17T16:23:06;81.43;;;61.10;;
19971;SDS011;10147;16.402;102.848;2022-10-17T16:25:36;79.97;;;58.33;;